sensor_id;sensor_type;location;lat;lon;timestamp;P1;durP1;ratioP1;P2;durP2;ratioP2
64938;SDS011;51453;47.738;7.420;2022-10-31T00:02:10;33.60;;;8.68;;
64938;SDS011;51453;47.738;7.420;2022-10-31T00:04:36;15.93;;;8.15;;
64938;SDS011;51453;47.738;7.420;2022-10-31T00:07:01;25.70;;;8.25;;
64938;SDS011;51453;47.738;7.420;2022-10-31T00:09:27;16.95;;;8.23;;
64938;SDS011;51453;47.738;7.420;2022-10-31T00:11:53;20.77;;;8.57;;
64938;SDS011;51453;47.738;7.420;2022-10-31T00:14:18;30.80;;;9.93;;
64938;SDS011;51453;47.738;7.420;2022-10-31T00:16:44;19.38;;;8.70;;
64938;SDS011;51453;47.738;7.420;2022-10-31T00:19:09;24.60;;;8.98;;
64938;SDS011;51453;47.738;7.420;2022-10-31T00:21:35;19.42;;;8.57;;
64938;SDS011;51453;47.738;7.420;2022-10-31T00:24:01;22.80;;;8.52;;
64938;SDS011;51453;47.738;7.420;2022-10-31T00:26:27;20.38;;;8.90;;
64938;SDS011;51453;47.738;7.420;2022-10-31T00:28:53;19.98;;;8.65;;
64938;SDS011;51453;47.738;7.420;2022-10-31T00:31:19;19.40;;;8.63;;
64938;SDS011;51453;47.738;7.420;2022-10-31T00:33:45;20.13;;;8.50;;
64938;SDS011;51453;47.738;7.420;2022-10-31T00:36:12;22.02;;;8.27;;
64938;SDS011;51453;47.738;7.420;2022-10-31T00:38:39;16.42;;;8.30;;
64938;SDS011;51453;47.738;7.420;2022-10-31T00:41:06;18.55;;;8.10;;
64938;SDS011;51453;47.738;7.420;2022-10-31T00:43:31;19.48;;;7.20;;
64938;SDS011;51453;47.738;7.420;2022-10-31T00:45:57;15.77;;;7.30;;
64938;SDS011;51453;47.738;7.420;2022-10-31T00:48:23;16.80;;;8.05;;
64938;SDS011;51453;47.738;7.420;2022-10-31T00:50:48;21.10;;;7.70;;
64938;SDS011;51453;47.738;7.420;2022-10-31T00:53:14;14.60;;;7.47;;
64938;SDS011;51453;47.738;7.420;2022-10-31T00:55:40;22.77;;;8.10;;
64938;SDS011;51453;47.738;7.420;2022-10-31T00:58:05;16.13;;;7.45;;
64938;SDS011;51453;47.738;7.420;2022-10-31T01:00:31;19.85;;;7.03;;
64938;SDS011;51453;47.738;7.420;2022-10-31T01:02:57;21.50;;;7.70;;
64938;SDS011;51453;47.738;7.420;2022-10-31T01:05:22;15.65;;;7.32;;
64938;SDS011;51453;47.738;7.420;2022-10-31T01:07:48;15.85;;;7.55;;
64938;SDS011;51453;47.738;7.420;2022-10-31T01:10:14;18.40;;;7.10;;
64938;SDS011;51453;47.738;7.420;2022-10-31T01:12:40;17.70;;;6.95;;
64938;SDS011;51453;47.738;7.420;2022-10-31T01:15:08;14.35;;;7.32;;
64938;SDS011;51453;47.738;7.420;2022-10-31T01:17:36;17.60;;;7.47;;
64938;SDS011;51453;47.738;7.420;2022-10-31T01:20:02;17.75;;;7.32;;
64938;SDS011;51453;47.738;7.420;2022-10-31T01:22:29;15.77;;;7.00;;
64938;SDS011;51453;47.738;7.420;2022-10-31T01:24:55;16.88;;;6.80;;
64938;SDS011;51453;47.738;7.420;2022-10-31T01:27:20;16.83;;;7.40;;
64938;SDS011;51453;47.738;7.420;2022-10-31T01:29:46;21.13;;;6.75;;
64938;SDS011;51453;47.738;7.420;2022-10-31T01:32:11;15.60;;;7.03;;
64938;SDS011;51453;47.738;7.420;2022-10-31T01:34:37;18.50;;;7.45;;
64938;SDS011;51453;47.738;7.420;2022-10-31T01:37:03;17.52;;;7.22;;
64938;SDS011;51453;47.738;7.420;2022-10-31T01:39:28;16.38;;;6.85;;
64938;SDS011;51453;47.738;7.420;2022-10-31T01:41:54;16.27;;;7.03;;
64938;SDS011;51453;47.738;7.420;2022-10-31T01:46:53;17.58;;;7.80;;
64938;SDS011;51453;47.738;7.420;2022-10-31T01:49:46;14.05;;;7.40;;
64938;SDS011;51453;47.738;7.420;2022-10-31T01:52:23;18.02;;;7.60;;
64938;SDS011;51453;47.738;7.420;2022-10-31T01:55:00;17.23;;;7.65;;
64938;SDS011;51453;47.738;7.420;2022-10-31T01:57:30;20.60;;;7.78;;
64938;SDS011;51453;47.738;7.420;2022-10-31T01:59:59;13.40;;;8.05;;
64938;SDS011;51453;47.738;7.420;2022-10-31T02:02:29;16.23;;;7.53;;
64938;SDS011;51453;47.738;7.420;2022-10-31T02:04:56;17.33;;;7.60;;
64938;SDS011;51453;47.738;7.420;2022-10-31T02:07:26;12.95;;;7.10;;
64938;SDS011;51453;47.738;7.420;2022-10-31T02:10:04;17.27;;;7.82;;
64938;SDS011;51453;47.738;7.420;2022-10-31T02:12:30;17.80;;;8.02;;
64938;SDS011;51453;47.738;7.420;2022-10-31T02:14:58;17.48;;;8.13;;
64938;SDS011;51453;47.738;7.420;2022-10-31T02:17:25;15.73;;;8.43;;
64938;SDS011;51453;47.738;7.420;2022-10-31T02:25:09;15.82;;;8.00;;
64938;SDS011;51453;47.738;7.420;2022-10-31T02:28:00;18.55;;;7.95;;
64938;SDS011;51453;47.738;7.420;2022-10-31T02:33:40;15.65;;;8.02;;
64938;SDS011;51453;47.738;7.420;2022-10-31T02:38:41;15.00;;;7.75;;
64938;SDS011;51453;47.738;7.420;2022-10-31T02:44:33;26.48;;;8.82;;
64938;SDS011;51453;47.738;7.420;2022-10-31T02:47:09;23.27;;;8.82;;
64938;SDS011;51453;47.738;7.420;2022-10-31T02:54:45;20.38;;;7.97;;
64938;SDS011;51453;47.738;7.420;2022-10-31T02:57:11;19.13;;;8.88;;
64938;SDS011;51453;47.738;7.420;2022-10-31T02:59:40;23.98;;;9.40;;
64938;SDS011;51453;47.738;7.420;2022-10-31T03:10:30;16.65;;;8.10;;
64938;SDS011;51453;47.738;7.420;2022-10-31T03:12:59;16.63;;;8.40;;
64938;SDS011;51453;47.738;7.420;2022-10-31T03:15:46;16.92;;;8.57;;
64938;SDS011;51453;47.738;7.420;2022-10-31T03:18:29;19.60;;;8.88;;
64938;SDS011;51453;47.738;7.420;2022-10-31T03:23:48;18.85;;;8.60;;
64938;SDS011;51453;47.738;7.420;2022-10-31T03:26:16;22.85;;;8.85;;
64938;SDS011;51453;47.738;7.420;2022-10-31T03:28:46;12.38;;;7.88;;
64938;SDS011;51453;47.738;7.420;2022-10-31T03:31:18;19.23;;;8.55;;
64938;SDS011;51453;47.738;7.420;2022-10-31T03:33:48;17.58;;;9.00;;
64938;SDS011;51453;47.738;7.420;2022-10-31T03:36:16;14.63;;;7.95;;
64938;SDS011;51453;47.738;7.420;2022-10-31T03:38:42;23.05;;;8.68;;
64938;SDS011;51453;47.738;7.420;2022-10-31T03:41:11;17.55;;;8.85;;
64938;SDS011;51453;47.738;7.420;2022-10-31T03:43:42;22.35;;;9.07;;
64938;SDS011;51453;47.738;7.420;2022-10-31T03:46:21;17.42;;;8.48;;
64938;SDS011;51453;47.738;7.420;2022-10-31T03:48:47;18.95;;;8.48;;
64938;SDS011;51453;47.738;7.420;2022-10-31T03:54:13;15.77;;;8.88;;
64938;SDS011;51453;47.738;7.420;2022-10-31T04:01:55;24.83;;;10.07;;
64938;SDS011;51453;47.738;7.420;2022-10-31T04:04:25;21.35;;;8.93;;
64938;SDS011;51453;47.738;7.420;2022-10-31T04:06:54;16.33;;;8.43;;
64938;SDS011;51453;47.738;7.420;2022-10-31T04:09:24;18.00;;;9.10;;
64938;SDS011;51453;47.738;7.420;2022-10-31T04:11:53;15.52;;;8.98;;
64938;SDS011;51453;47.738;7.420;2022-10-31T04:14:20;21.52;;;9.75;;
64938;SDS011;51453;47.738;7.420;2022-10-31T04:16:48;18.55;;;8.98;;
64938;SDS011;51453;47.738;7.420;2022-10-31T04:19:14;23.13;;;9.43;;
64938;SDS011;51453;47.738;7.420;2022-10-31T04:21:40;14.13;;;8.68;;
64938;SDS011;51453;47.738;7.420;2022-10-31T04:24:09;18.45;;;9.18;;
64938;SDS011;51453;47.738;7.420;2022-10-31T04:26:35;18.35;;;10.05;;
64938;SDS011;51453;47.738;7.420;2022-10-31T04:29:01;16.60;;;9.05;;
64938;SDS011;51453;47.738;7.420;2022-10-31T04:31:26;18.30;;;8.57;;
64938;SDS011;51453;47.738;7.420;2022-10-31T04:33:52;16.10;;;8.98;;
64938;SDS011;51453;47.738;7.420;2022-10-31T04:36:18;19.42;;;9.25;;
64938;SDS011;51453;47.738;7.420;2022-10-31T04:38:43;17.27;;;8.82;;
64938;SDS011;51453;47.738;7.420;2022-10-31T04:41:09;13.10;;;8.18;;
64938;SDS011;51453;47.738;7.420;2022-10-31T04:43:35;15.85;;;9.02;;
64938;SDS011;51453;47.738;7.420;2022-10-31T04:46:00;18.08;;;9.10;;
64938;SDS011;51453;47.738;7.420;2022-10-31T04:48:26;20.52;;;9.35;;
64938;SDS011;51453;47.738;7.420;2022-10-31T04:50:51;18.50;;;9.50;;
64938;SDS011;51453;47.738;7.420;2022-10-31T04:53:17;17.08;;;9.25;;
64938;SDS011;51453;47.738;7.420;2022-10-31T04:55:43;21.80;;;8.85;;
64938;SDS011;51453;47.738;7.420;2022-10-31T04:58:08;18.15;;;9.63;;
64938;SDS011;51453;47.738;7.420;2022-10-31T05:00:34;19.50;;;9.27;;
64938;SDS011;51453;47.738;7.420;2022-10-31T05:03:00;15.57;;;8.55;;
64938;SDS011;51453;47.738;7.420;2022-10-31T05:05:27;15.32;;;8.60;;
64938;SDS011;51453;47.738;7.420;2022-10-31T05:07:54;18.42;;;9.50;;
64938;SDS011;51453;47.738;7.420;2022-10-31T05:10:21;21.92;;;10.02;;
64938;SDS011;51453;47.738;7.420;2022-10-31T05:12:56;16.15;;;9.52;;
64938;SDS011;51453;47.738;7.420;2022-10-31T05:15:24;17.77;;;8.90;;
64938;SDS011;51453;47.738;7.420;2022-10-31T05:17:51;16.65;;;8.90;;
64938;SDS011;51453;47.738;7.420;2022-10-31T05:20:18;15.63;;;8.98;;
64938;SDS011;51453;47.738;7.420;2022-10-31T05:22:49;22.90;;;8.95;;
64938;SDS011;51453;47.738;7.420;2022-10-31T05:27:43;20.13;;;9.85;;
64938;SDS011;51453;47.738;7.420;2022-10-31T05:30:11;15.30;;;8.85;;
64938;SDS011;51453;47.738;7.420;2022-10-31T05:32:43;16.67;;;9.23;;
64938;SDS011;51453;47.738;7.420;2022-10-31T05:35:13;16.50;;;8.68;;
64938;SDS011;51453;47.738;7.420;2022-10-31T05:37:40;16.55;;;9.35;;
64938;SDS011;51453;47.738;7.420;2022-10-31T05:40:06;17.67;;;8.77;;
64938;SDS011;51453;47.738;7.420;2022-10-31T05:42:34;17.10;;;8.90;;
64938;SDS011;51453;47.738;7.420;2022-10-31T05:45:00;13.20;;;8.93;;
64938;SDS011;51453;47.738;7.420;2022-10-31T05:47:26;15.60;;;9.32;;
64938;SDS011;51453;47.738;7.420;2022-10-31T05:49:52;17.05;;;8.93;;
64938;SDS011;51453;47.738;7.420;2022-10-31T05:52:17;17.48;;;9.18;;
64938;SDS011;51453;47.738;7.420;2022-10-31T05:54:43;21.98;;;10.48;;
64938;SDS011;51453;47.738;7.420;2022-10-31T05:57:09;20.02;;;10.95;;
64938;SDS011;51453;47.738;7.420;2022-10-31T05:59:35;23.98;;;10.77;;
64938;SDS011;51453;47.738;7.420;2022-10-31T06:02:00;20.67;;;10.68;;
64938;SDS011;51453;47.738;7.420;2022-10-31T06:04:26;22.17;;;10.55;;
64938;SDS011;51453;47.738;7.420;2022-10-31T06:06:52;19.30;;;10.20;;
64938;SDS011;51453;47.738;7.420;2022-10-31T06:09:17;20.85;;;10.45;;
64938;SDS011;51453;47.738;7.420;2022-10-31T06:11:43;22.58;;;11.05;;
64938;SDS011;51453;47.738;7.420;2022-10-31T06:14:09;16.80;;;10.05;;
64938;SDS011;51453;47.738;7.420;2022-10-31T06:16:34;25.20;;;10.57;;
64938;SDS011;51453;47.738;7.420;2022-10-31T06:19:00;22.45;;;10.00;;
64938;SDS011;51453;47.738;7.420;2022-10-31T06:21:26;21.35;;;10.82;;
64938;SDS011;51453;47.738;7.420;2022-10-31T06:23:52;19.42;;;10.73;;
64938;SDS011;51453;47.738;7.420;2022-10-31T06:26:18;20.27;;;10.73;;
64938;SDS011;51453;47.738;7.420;2022-10-31T06:28:44;21.77;;;11.35;;
64938;SDS011;51453;47.738;7.420;2022-10-31T06:31:09;18.80;;;10.38;;
64938;SDS011;51453;47.738;7.420;2022-10-31T06:33:35;16.02;;;10.30;;
64938;SDS011;51453;47.738;7.420;2022-10-31T06:36:02;16.92;;;10.68;;
64938;SDS011;51453;47.738;7.420;2022-10-31T06:38:28;21.48;;;10.60;;
64938;SDS011;51453;47.738;7.420;2022-10-31T06:40:54;17.20;;;11.55;;
64938;SDS011;51453;47.738;7.420;2022-10-31T06:43:20;17.92;;;10.77;;
64938;SDS011;51453;47.738;7.420;2022-10-31T06:45:46;20.58;;;10.82;;
64938;SDS011;51453;47.738;7.420;2022-10-31T06:48:12;15.43;;;10.32;;
64938;SDS011;51453;47.738;7.420;2022-10-31T06:50:38;18.92;;;9.52;;
64938;SDS011;51453;47.738;7.420;2022-10-31T06:53:04;20.00;;;10.05;;
64938;SDS011;51453;47.738;7.420;2022-10-31T06:55:29;22.95;;;11.57;;
64938;SDS011;51453;47.738;7.420;2022-10-31T06:57:56;15.05;;;10.02;;
64938;SDS011;51453;47.738;7.420;2022-10-31T07:00:23;18.52;;;10.20;;
64938;SDS011;51453;47.738;7.420;2022-10-31T07:02:56;19.13;;;10.85;;
64938;SDS011;51453;47.738;7.420;2022-10-31T07:05:27;20.15;;;9.85;;
64938;SDS011;51453;47.738;7.420;2022-10-31T07:07:57;16.02;;;9.60;;
64938;SDS011;51453;47.738;7.420;2022-10-31T07:10:24;19.65;;;10.88;;
64938;SDS011;51453;47.738;7.420;2022-10-31T07:12:55;16.98;;;9.90;;
64938;SDS011;51453;47.738;7.420;2022-10-31T07:15:22;17.58;;;9.90;;
64938;SDS011;51453;47.738;7.420;2022-10-31T07:17:48;17.33;;;10.55;;
64938;SDS011;51453;47.738;7.420;2022-10-31T07:20:14;14.52;;;8.68;;
64938;SDS011;51453;47.738;7.420;2022-10-31T07:22:40;26.75;;;10.07;;
64938;SDS011;51453;47.738;7.420;2022-10-31T07:25:06;13.93;;;8.93;;
64938;SDS011;51453;47.738;7.420;2022-10-31T07:27:38;20.38;;;9.40;;
64938;SDS011;51453;47.738;7.420;2022-10-31T07:30:05;19.38;;;9.20;;
64938;SDS011;51453;47.738;7.420;2022-10-31T07:35:08;14.77;;;9.10;;
64938;SDS011;51453;47.738;7.420;2022-10-31T07:37:35;19.33;;;9.50;;
64938;SDS011;51453;47.738;7.420;2022-10-31T07:40:01;17.17;;;9.05;;
64938;SDS011;51453;47.738;7.420;2022-10-31T07:42:28;14.50;;;9.25;;
64938;SDS011;51453;47.738;7.420;2022-10-31T07:44:53;17.98;;;9.73;;
64938;SDS011;51453;47.738;7.420;2022-10-31T07:47:19;15.50;;;9.38;;
64938;SDS011;51453;47.738;7.420;2022-10-31T07:49:45;16.92;;;9.55;;
64938;SDS011;51453;47.738;7.420;2022-10-31T07:52:10;15.55;;;9.25;;
64938;SDS011;51453;47.738;7.420;2022-10-31T07:54:36;15.32;;;9.82;;
64938;SDS011;51453;47.738;7.420;2022-10-31T07:57:02;15.43;;;9.57;;
64938;SDS011;51453;47.738;7.420;2022-10-31T07:59:27;14.05;;;9.00;;
64938;SDS011;51453;47.738;7.420;2022-10-31T08:01:53;16.63;;;9.13;;
64938;SDS011;51453;47.738;7.420;2022-10-31T08:04:18;18.85;;;9.65;;
64938;SDS011;51453;47.738;7.420;2022-10-31T08:06:44;15.75;;;9.60;;
64938;SDS011;51453;47.738;7.420;2022-10-31T08:09:10;21.42;;;9.77;;
64938;SDS011;51453;47.738;7.420;2022-10-31T08:11:35;18.65;;;10.10;;
64938;SDS011;51453;47.738;7.420;2022-10-31T08:14:01;23.80;;;10.77;;
64938;SDS011;51453;47.738;7.420;2022-10-31T08:16:27;15.48;;;9.77;;
64938;SDS011;51453;47.738;7.420;2022-10-31T08:18:52;22.35;;;10.52;;
64938;SDS011;51453;47.738;7.420;2022-10-31T08:21:20;14.70;;;9.45;;
64938;SDS011;51453;47.738;7.420;2022-10-31T08:23:46;21.20;;;10.15;;
64938;SDS011;51453;47.738;7.420;2022-10-31T08:26:12;16.40;;;9.68;;
64938;SDS011;51453;47.738;7.420;2022-10-31T08:28:37;16.63;;;9.30;;
64938;SDS011;51453;47.738;7.420;2022-10-31T08:31:03;19.10;;;9.27;;
64938;SDS011;51453;47.738;7.420;2022-10-31T08:33:29;15.77;;;9.43;;
64938;SDS011;51453;47.738;7.420;2022-10-31T08:35:57;14.98;;;9.52;;
64938;SDS011;51453;47.738;7.420;2022-10-31T08:38:23;15.73;;;9.20;;
64938;SDS011;51453;47.738;7.420;2022-10-31T08:40:49;17.75;;;8.60;;
64938;SDS011;51453;47.738;7.420;2022-10-31T08:43:15;14.52;;;8.52;;
64938;SDS011;51453;47.738;7.420;2022-10-31T08:45:42;18.42;;;9.15;;
64938;SDS011;51453;47.738;7.420;2022-10-31T08:48:10;18.23;;;8.35;;
64938;SDS011;51453;47.738;7.420;2022-10-31T08:50:37;14.98;;;8.32;;
64938;SDS011;51453;47.738;7.420;2022-10-31T08:53:05;22.17;;;8.75;;
64938;SDS011;51453;47.738;7.420;2022-10-31T08:55:35;14.85;;;9.07;;
64938;SDS011;51453;47.738;7.420;2022-10-31T08:58:06;15.02;;;8.70;;
64938;SDS011;51453;47.738;7.420;2022-10-31T09:00:35;17.13;;;8.55;;
64938;SDS011;51453;47.738;7.420;2022-10-31T09:03:02;13.75;;;8.68;;
64938;SDS011;51453;47.738;7.420;2022-10-31T09:05:30;18.00;;;8.98;;
64938;SDS011;51453;47.738;7.420;2022-10-31T09:08:00;14.60;;;8.20;;
64938;SDS011;51453;47.738;7.420;2022-10-31T09:10:27;21.80;;;8.37;;
64938;SDS011;51453;47.738;7.420;2022-10-31T09:12:57;12.20;;;7.90;;
64938;SDS011;51453;47.738;7.420;2022-10-31T09:15:24;14.73;;;8.27;;
64938;SDS011;51453;47.738;7.420;2022-10-31T09:17:51;13.77;;;7.80;;
64938;SDS011;51453;47.738;7.420;2022-10-31T09:20:17;13.07;;;8.27;;
64938;SDS011;51453;47.738;7.420;2022-10-31T09:22:43;16.08;;;8.68;;
64938;SDS011;51453;47.738;7.420;2022-10-31T09:25:09;14.95;;;8.25;;
64938;SDS011;51453;47.738;7.420;2022-10-31T09:27:34;14.90;;;8.10;;
64938;SDS011;51453;47.738;7.420;2022-10-31T09:30:00;12.90;;;7.38;;
64938;SDS011;51453;47.738;7.420;2022-10-31T09:32:26;15.27;;;8.13;;
64938;SDS011;51453;47.738;7.420;2022-10-31T09:34:52;18.95;;;8.25;;
64938;SDS011;51453;47.738;7.420;2022-10-31T09:37:17;20.88;;;8.15;;
64938;SDS011;51453;47.738;7.420;2022-10-31T09:39:43;12.88;;;7.65;;
64938;SDS011;51453;47.738;7.420;2022-10-31T09:54:58;14.98;;;7.70;;
64938;SDS011;51453;47.738;7.420;2022-10-31T09:57:32;12.82;;;6.60;;
64938;SDS011;51453;47.738;7.420;2022-10-31T09:59:59;11.32;;;6.63;;
64938;SDS011;51453;47.738;7.420;2022-10-31T10:05:12;16.70;;;7.75;;
64938;SDS011;51453;47.738;7.420;2022-10-31T10:10:15;15.20;;;6.22;;
64938;SDS011;51453;47.738;7.420;2022-10-31T10:21:02;14.35;;;6.70;;
64938;SDS011;51453;47.738;7.420;2022-10-31T10:26:17;17.73;;;6.18;;
64938;SDS011;51453;47.738;7.420;2022-10-31T10:28:46;13.73;;;6.47;;
64938;SDS011;51453;47.738;7.420;2022-10-31T10:31:42;13.68;;;6.25;;
64938;SDS011;51453;47.738;7.420;2022-10-31T10:36:43;12.52;;;5.53;;
64938;SDS011;51453;47.738;7.420;2022-10-31T10:39:36;13.07;;;5.60;;
64938;SDS011;51453;47.738;7.420;2022-10-31T10:42:15;11.70;;;6.05;;
64938;SDS011;51453;47.738;7.420;2022-10-31T10:45:00;12.30;;;5.97;;
64938;SDS011;51453;47.738;7.420;2022-10-31T10:48:14;8.50;;;5.63;;
64938;SDS011;51453;47.738;7.420;2022-10-31T10:50:54;18.05;;;6.70;;
64938;SDS011;51453;47.738;7.420;2022-10-31T10:59:13;10.20;;;5.43;;
64938;SDS011;51453;47.738;7.420;2022-10-31T11:01:43;10.60;;;5.00;;
64938;SDS011;51453;47.738;7.420;2022-10-31T11:07:13;9.38;;;4.40;;
64938;SDS011;51453;47.738;7.420;2022-10-31T11:09:38;9.48;;;4.15;;
64938;SDS011;51453;47.738;7.420;2022-10-31T11:12:11;11.45;;;4.28;;
64938;SDS011;51453;47.738;7.420;2022-10-31T11:14:45;7.77;;;4.33;;
64938;SDS011;51453;47.738;7.420;2022-10-31T11:20:00;9.38;;;3.70;;
64938;SDS011;51453;47.738;7.420;2022-10-31T11:22:32;8.43;;;3.45;;
64938;SDS011;51453;47.738;7.420;2022-10-31T11:24:58;11.23;;;3.75;;
64938;SDS011;51453;47.738;7.420;2022-10-31T11:27:24;10.63;;;3.58;;
64938;SDS011;51453;47.738;7.420;2022-10-31T11:29:50;9.65;;;3.15;;
64938;SDS011;51453;47.738;7.420;2022-10-31T11:32:26;9.25;;;3.70;;
64938;SDS011;51453;47.738;7.420;2022-10-31T11:34:57;7.80;;;3.60;;
64938;SDS011;51453;47.738;7.420;2022-10-31T11:37:29;8.77;;;3.60;;
64938;SDS011;51453;47.738;7.420;2022-10-31T11:40:02;6.63;;;3.35;;
64938;SDS011;51453;47.738;7.420;2022-10-31T11:42:40;7.07;;;3.05;;
64938;SDS011;51453;47.738;7.420;2022-10-31T11:45:17;13.32;;;3.63;;
64938;SDS011;51453;47.738;7.420;2022-10-31T11:47:47;14.48;;;3.85;;
64938;SDS011;51453;47.738;7.420;2022-10-31T11:50:25;9.27;;;3.80;;
64938;SDS011;51453;47.738;7.420;2022-10-31T11:53:03;11.07;;;3.30;;
64938;SDS011;51453;47.738;7.420;2022-10-31T11:55:38;7.85;;;2.95;;
64938;SDS011;51453;47.738;7.420;2022-10-31T11:58:05;10.30;;;3.63;;
64938;SDS011;51453;47.738;7.420;2022-10-31T12:00:49;7.43;;;3.15;;
64938;SDS011;51453;47.738;7.420;2022-10-31T12:08:29;8.13;;;3.30;;
64938;SDS011;51453;47.738;7.420;2022-10-31T12:14:03;11.30;;;3.30;;
64938;SDS011;51453;47.738;7.420;2022-10-31T12:16:36;7.55;;;3.20;;
64938;SDS011;51453;47.738;7.420;2022-10-31T12:19:17;8.93;;;3.70;;
64938;SDS011;51453;47.738;7.420;2022-10-31T12:27:21;8.85;;;3.17;;
64938;SDS011;51453;47.738;7.420;2022-10-31T12:32:43;9.45;;;3.42;;
64938;SDS011;51453;47.738;7.420;2022-10-31T12:46:00;10.45;;;3.72;;
64938;SDS011;51453;47.738;7.420;2022-10-31T13:02:27;11.75;;;3.15;;
64938;SDS011;51453;47.738;7.420;2022-10-31T13:05:19;11.07;;;2.63;;
64938;SDS011;51453;47.738;7.420;2022-10-31T13:07:55;11.82;;;3.28;;
64938;SDS011;51453;47.738;7.420;2022-10-31T13:10:28;7.28;;;2.97;;
64938;SDS011;51453;47.738;7.420;2022-10-31T13:13:05;5.93;;;2.67;;
64938;SDS011;51453;47.738;7.420;2022-10-31T13:15:41;7.30;;;2.70;;
64938;SDS011;51453;47.738;7.420;2022-10-31T13:21:18;7.28;;;2.65;;
64938;SDS011;51453;47.738;7.420;2022-10-31T13:23:50;8.45;;;3.33;;
64938;SDS011;51453;47.738;7.420;2022-10-31T13:32:05;7.82;;;2.90;;
64938;SDS011;51453;47.738;7.420;2022-10-31T13:34:33;8.25;;;3.00;;
64938;SDS011;51453;47.738;7.420;2022-10-31T13:44:36;14.57;;;3.67;;
64938;SDS011;51453;47.738;7.420;2022-10-31T13:50:14;10.25;;;3.22;;
64938;SDS011;51453;47.738;7.420;2022-10-31T13:52:43;7.38;;;2.90;;
64938;SDS011;51453;47.738;7.420;2022-10-31T14:01:15;14.82;;;4.15;;
64938;SDS011;51453;47.738;7.420;2022-10-31T14:03:44;10.35;;;3.80;;
64938;SDS011;51453;47.738;7.420;2022-10-31T14:06:12;14.02;;;3.88;;
64938;SDS011;51453;47.738;7.420;2022-10-31T14:08:49;9.73;;;3.92;;
64938;SDS011;51453;47.738;7.420;2022-10-31T14:11:22;6.53;;;3.22;;
64938;SDS011;51453;47.738;7.420;2022-10-31T14:13:51;8.35;;;3.10;;
64938;SDS011;51453;47.738;7.420;2022-10-31T14:16:19;9.25;;;3.10;;
64938;SDS011;51453;47.738;7.420;2022-10-31T14:18:50;10.73;;;3.33;;
64938;SDS011;51453;47.738;7.420;2022-10-31T14:23:49;8.35;;;3.47;;
64938;SDS011;51453;47.738;7.420;2022-10-31T14:28:54;9.57;;;3.10;;
64938;SDS011;51453;47.738;7.420;2022-10-31T14:31:29;9.27;;;3.55;;
64938;SDS011;51453;47.738;7.420;2022-10-31T14:53:19;11.23;;;3.30;;
64938;SDS011;51453;47.738;7.420;2022-10-31T14:55:49;8.93;;;3.10;;
64938;SDS011;51453;47.738;7.420;2022-10-31T14:58:24;7.90;;;3.30;;
64938;SDS011;51453;47.738;7.420;2022-10-31T15:00:58;12.00;;;3.57;;
64938;SDS011;51453;47.738;7.420;2022-10-31T15:03:27;8.20;;;3.42;;
64938;SDS011;51453;47.738;7.420;2022-10-31T15:06:11;9.60;;;3.28;;
64938;SDS011;51453;47.738;7.420;2022-10-31T15:08:44;7.72;;;3.30;;
64938;SDS011;51453;47.738;7.420;2022-10-31T15:11:18;9.57;;;3.47;;
64938;SDS011;51453;47.738;7.420;2022-10-31T15:13:50;11.68;;;3.45;;
64938;SDS011;51453;47.738;7.420;2022-10-31T15:16:35;11.00;;;3.28;;
64938;SDS011;51453;47.738;7.420;2022-10-31T15:19:12;9.32;;;3.47;;
64938;SDS011;51453;47.738;7.420;2022-10-31T15:21:45;13.70;;;3.15;;
64938;SDS011;51453;47.738;7.420;2022-10-31T15:24:12;7.47;;;3.30;;
64938;SDS011;51453;47.738;7.420;2022-10-31T15:26:47;11.68;;;3.28;;
64938;SDS011;51453;47.738;7.420;2022-10-31T15:29:16;8.60;;;3.33;;
64938;SDS011;51453;47.738;7.420;2022-10-31T15:31:50;11.85;;;3.65;;
64938;SDS011;51453;47.738;7.420;2022-10-31T15:34:18;10.55;;;3.88;;
64938;SDS011;51453;47.738;7.420;2022-10-31T15:36:47;10.07;;;3.60;;
64938;SDS011;51453;47.738;7.420;2022-10-31T15:39:15;10.95;;;3.25;;
64938;SDS011;51453;47.738;7.420;2022-10-31T15:47:05;10.10;;;3.67;;
64938;SDS011;51453;47.738;7.420;2022-10-31T15:55:21;10.57;;;4.13;;
64938;SDS011;51453;47.738;7.420;2022-10-31T15:57:52;8.55;;;3.88;;
64938;SDS011;51453;47.738;7.420;2022-10-31T16:03:30;13.27;;;4.68;;
64938;SDS011;51453;47.738;7.420;2022-10-31T16:05:50;8.13;;;4.20;;
64938;SDS011;51453;47.738;7.420;2022-10-31T16:08:35;12.27;;;3.90;;
64938;SDS011;51453;47.738;7.420;2022-10-31T16:11:17;9.70;;;3.72;;
64938;SDS011;51453;47.738;7.420;2022-10-31T16:16:21;12.82;;;4.22;;
64938;SDS011;51453;47.738;7.420;2022-10-31T16:18:49;11.15;;;4.22;;
64938;SDS011;51453;47.738;7.420;2022-10-31T16:21:22;7.95;;;3.80;;
64938;SDS011;51453;47.738;7.420;2022-10-31T16:24:04;11.80;;;4.50;;
64938;SDS011;51453;47.738;7.420;2022-10-31T16:26:41;12.07;;;5.03;;
64938;SDS011;51453;47.738;7.420;2022-10-31T16:29:23;13.17;;;5.10;;
64938;SDS011;51453;47.738;7.420;2022-10-31T16:32:03;13.15;;;6.03;;
64938;SDS011;51453;47.738;7.420;2022-10-31T16:34:28;16.30;;;6.05;;
64938;SDS011;51453;47.738;7.420;2022-10-31T16:36:54;11.48;;;6.93;;
64938;SDS011;51453;47.738;7.420;2022-10-31T16:39:20;17.70;;;7.57;;
64938;SDS011;51453;47.738;7.420;2022-10-31T16:41:47;15.73;;;7.50;;
64938;SDS011;51453;47.738;7.420;2022-10-31T16:44:21;17.05;;;8.38;;
64938;SDS011;51453;47.738;7.420;2022-10-31T16:46:49;20.60;;;8.77;;
64938;SDS011;51453;47.738;7.420;2022-10-31T16:49:26;15.90;;;9.10;;
64938;SDS011;51453;47.738;7.420;2022-10-31T16:51:52;17.85;;;9.73;;
64938;SDS011;51453;47.738;7.420;2022-10-31T16:54:18;17.33;;;9.57;;
64938;SDS011;51453;47.738;7.420;2022-10-31T16:56:43;14.98;;;8.77;;
64938;SDS011;51453;47.738;7.420;2022-10-31T16:59:10;19.60;;;8.80;;
64938;SDS011;51453;47.738;7.420;2022-10-31T17:01:37;12.23;;;6.82;;
64938;SDS011;51453;47.738;7.420;2022-10-31T17:04:05;15.02;;;6.90;;
64938;SDS011;51453;47.738;7.420;2022-10-31T17:06:30;18.90;;;7.20;;
64938;SDS011;51453;47.738;7.420;2022-10-31T17:08:56;16.75;;;7.22;;
64938;SDS011;51453;47.738;7.420;2022-10-31T17:11:22;13.18;;;6.85;;
64938;SDS011;51453;47.738;7.420;2022-10-31T17:13:50;18.80;;;7.05;;
64938;SDS011;51453;47.738;7.420;2022-10-31T17:16:16;13.30;;;6.63;;
64938;SDS011;51453;47.738;7.420;2022-10-31T17:18:41;13.57;;;6.75;;
64938;SDS011;51453;47.738;7.420;2022-10-31T17:21:14;18.08;;;7.38;;
64938;SDS011;51453;47.738;7.420;2022-10-31T17:23:46;16.52;;;6.97;;
64938;SDS011;51453;47.738;7.420;2022-10-31T17:26:12;18.92;;;8.95;;
64938;SDS011;51453;47.738;7.420;2022-10-31T17:28:38;22.20;;;8.48;;
64938;SDS011;51453;47.738;7.420;2022-10-31T17:31:04;14.07;;;7.53;;
64938;SDS011;51453;47.738;7.420;2022-10-31T17:33:30;23.27;;;8.55;;
64938;SDS011;51453;47.738;7.420;2022-10-31T17:35:56;17.55;;;9.40;;
64938;SDS011;51453;47.738;7.420;2022-10-31T17:38:22;19.75;;;9.95;;
64938;SDS011;51453;47.738;7.420;2022-10-31T17:40:48;20.80;;;8.90;;
64938;SDS011;51453;47.738;7.420;2022-10-31T17:43:13;18.55;;;8.60;;
64938;SDS011;51453;47.738;7.420;2022-10-31T17:45:39;22.55;;;8.98;;
64938;SDS011;51453;47.738;7.420;2022-10-31T17:48:06;15.35;;;7.90;;
64938;SDS011;51453;47.738;7.420;2022-10-31T17:50:33;24.77;;;8.15;;
64938;SDS011;51453;47.738;7.420;2022-10-31T17:52:59;16.88;;;8.02;;
64938;SDS011;51453;47.738;7.420;2022-10-31T17:55:25;16.45;;;7.95;;
64938;SDS011;51453;47.738;7.420;2022-10-31T17:57:51;26.80;;;6.57;;
64938;SDS011;51453;47.738;7.420;2022-10-31T18:00:17;18.92;;;6.72;;
64938;SDS011;51453;47.738;7.420;2022-10-31T18:02:49;20.95;;;6.35;;
64938;SDS011;51453;47.738;7.420;2022-10-31T18:05:15;17.75;;;6.70;;